Time;durP1;ratioP1;P1;durP2;ratioP2;P2;SDS_P1;SDS_P2;PMS_P1;PMS_P2;Temp;Humidity;BMP_temperature;BMP_pressure;BME280_temperature;BME280_humidity;BME280_pressure;Samples;Min_cycle;Max_cycle;Signal;HPM_P1;HPM_P2
2021/07/08 00:00:22;;;;;;;16.00;9.10;;;;;;;22.06;79.30;100877.41;5032820;28;20064;-83
2021/07/08 00:02:49;;;;;;;18.27;9.45;;;;;;;22.09;79.56;100879.94;5029339;28;20087;-89
2021/07/08 00:05:16;;;;;;;17.92;10.55;;;;;;;22.09;79.37;100882.63;5039770;28;20101;-88
2021/07/08 00:07:41;;;;;;;14.48;10.05;;;;;;;22.01;79.42;100882.94;5002651;28;20108;-89
2021/07/08 00:10:11;;;;;;;17.30;9.25;;;;;;;22.02;79.28;100883.81;5001624;28;20388;-87
2021/07/08 00:12:37;;;;;;;19.48;9.88;;;;;;;22.04;79.29;100881.94;5008975;28;20057;-88
2021/07/08 00:15:23;;;;;;;19.23;9.98;;;;;;;21.88;80.48;100879.00;5028519;28;20472;-89
2021/07/08 00:17:49;;;;;;;28.25;11.07;;;;;;;21.86;80.01;100876.38;5023325;28;20033;-88
2021/07/08 00:20:18;;;;;;;15.63;9.20;;;;;;;21.89;80.02;100880.72;5033205;28;20028;-88
2021/07/08 00:22:43;;;;;;;17.10;9.95;;;;;;;21.87;80.58;100880.81;5008537;28;20057;-89
2021/07/08 00:25:12;;;;;;;18.20;11.18;;;;;;;21.84;80.29;100882.72;5036536;28;20049;-90
2021/07/08 00:27:38;;;;;;;13.45;10.02;;;;;;;21.85;80.49;100876.47;5033538;28;20112;-91
2021/07/08 00:30:05;;;;;;;19.65;11.52;;;;;;;21.86;79.98;100880.84;5014801;28;20531;-89
2021/07/08 00:32:31;;;;;;;15.88;11.07;;;;;;;21.81;80.22;100883.72;5001610;28;20076;-87
2021/07/08 00:34:57;;;;;;;19.35;11.18;;;;;;;21.90;80.17;100882.50;5027934;28;20061;-88
2021/07/08 00:37:22;;;;;;;15.75;10.32;;;;;;;21.94;80.11;100878.78;5017157;28;20164;-88
2021/07/08 00:39:48;;;;;;;26.30;9.68;;;;;;;21.89;80.20;100884.28;5029697;28;20104;-88
2021/07/08 00:42:13;;;;;;;16.95;8.95;;;;;;;21.87;80.21;100883.47;5012453;28;20388;-88
2021/07/08 00:44:39;;;;;;;27.05;11.32;;;;;;;21.90;79.83;100896.72;5033132;28;20117;-87
2021/07/08 00:47:05;;;;;;;18.55;10.43;;;;;;;21.81;80.09;100896.22;5034805;28;20018;-85
2021/07/08 00:49:31;;;;;;;19.52;9.73;;;;;;;21.80;80.26;100891.81;5013618;28;20077;-80
2021/07/08 00:51:57;;;;;;;18.73;10.63;;;;;;;21.84;80.21;100896.94;5010228;28;20124;-80
2021/07/08 00:55:13;;;;;;;21.55;11.02;;;;;;;21.76;80.07;100893.72;5029661;28;20060;-87
2021/07/08 00:57:52;;;;;;;18.98;10.15;;;;;;;21.78;80.28;100889.19;5021086;28;20037;-88
2021/07/08 01:00:22;;;;;;;14.73;10.07;;;;;;;21.85;80.03;100889.81;5033815;28;20476;-87
2021/07/08 01:02:49;;;;;;;17.92;10.75;;;;;;;21.80;80.21;100890.00;5015433;28;20393;-86
2021/07/08 01:05:16;;;;;;;15.98;9.18;;;;;;;21.76;80.22;100890.19;5030957;28;20033;-81
2021/07/08 01:07:43;;;;;;;19.83;10.98;;;;;;;21.68;80.61;100896.69;5010722;28;20087;-81
2021/07/08 01:10:09;;;;;;;21.08;10.25;;;;;;;21.78;80.30;100877.63;5012814;28;20026;-80
2021/07/08 01:12:35;;;;;;;18.55;10.32;;;;;;;21.82;79.61;100890.81;5010173;28;20040;-81
2021/07/08 01:15:00;;;;;;;25.42;10.25;;;;;;;21.76;80.50;100900.88;5023728;28;20026;-81
2021/07/08 01:17:25;;;;;;;16.45;10.10;;;;;;;21.61;80.38;100903.19;4995604;28;20029;-80
2021/07/08 01:19:51;;;;;;;16.85;10.35;;;;;;;21.66;80.64;100897.69;4988758;28;20033;-81
2021/07/08 01:22:16;;;;;;;15.43;10.50;;;;;;;21.61;80.72;100895.19;5023299;28;20469;-81
2021/07/08 01:24:42;;;;;;;25.00;9.90;;;;;;;21.69;80.71;100897.56;5029366;28;20425;-81
2021/07/08 01:27:08;;;;;;;22.48;9.73;;;;;;;21.62;80.86;100893.38;5027664;28;20107;-82
2021/07/08 01:29:34;;;;;;;17.88;10.13;;;;;;;21.56;81.36;100894.47;5004143;28;20025;-81
2021/07/08 01:31:59;;;;;;;17.02;10.82;;;;;;;21.54;81.26;100898.13;5008639;28;20029;-81
2021/07/08 01:34:25;;;;;;;24.77;11.40;;;;;;;21.54;81.14;100899.03;4989130;28;20370;-81
2021/07/08 01:36:51;;;;;;;20.80;12.18;;;;;;;21.49;81.45;100901.88;5013663;28;20056;-80
2021/07/08 01:39:19;;;;;;;13.07;10.02;;;;;;;21.48;81.24;100897.44;5038490;28;20029;-80
2021/07/08 01:41:44;;;;;;;20.52;10.27;;;;;;;21.48;81.46;100902.78;5026786;28;20021;-80
2021/07/08 01:44:11;;;;;;;18.35;9.88;;;;;;;21.47;81.31;100900.19;5011487;28;20079;-80
2021/07/08 01:46:38;;;;;;;20.17;10.85;;;;;;;21.41;81.75;100903.94;5005151;28;20029;-80
2021/07/08 01:49:03;;;;;;;25.42;11.15;;;;;;;21.32;81.84;100906.91;5006309;28;20030;-81
2021/07/08 01:51:32;;;;;;;23.08;10.75;;;;;;;21.31;82.26;100902.50;5012324;28;20047;-80
2021/07/08 01:53:59;;;;;;;19.25;10.10;;;;;;;21.32;81.91;100911.38;5008149;28;20021;-80
2021/07/08 01:56:25;;;;;;;21.98;11.45;;;;;;;21.26;82.58;100900.00;4991294;28;20089;-81
2021/07/08 01:58:54;;;;;;;25.13;10.95;;;;;;;21.20;82.65;100904.69;5018057;28;20029;-81
2021/07/08 02:01:23;;;;;;;21.85;11.15;;;;;;;21.22;82.45;100910.84;5023260;28;20035;-81
2021/07/08 02:03:49;;;;;;;22.42;12.15;;;;;;;21.22;82.44;100906.38;5010561;28;20087;-81
2021/07/08 02:06:15;;;;;;;15.68;10.45;;;;;;;21.32;82.36;100906.91;4992660;28;20651;-81
2021/07/08 02:08:41;;;;;;;18.45;11.52;;;;;;;21.25;82.45;100916.06;5009062;28;20125;-80
2021/07/08 02:11:09;;;;;;;21.55;11.82;;;;;;;21.19;82.90;100911.84;5013013;28;20055;-82
2021/07/08 02:13:35;;;;;;;18.30;10.23;;;;;;;21.15;82.98;100918.19;4993780;28;20044;-80
2021/07/08 02:16:03;;;;;;;20.88;12.43;;;;;;;21.18;82.91;100925.22;5010506;28;20484;-78
2021/07/08 02:18:28;;;;;;;28.70;10.68;;;;;;;21.29;82.70;100915.91;4994518;28;20033;-78
2021/07/08 02:20:54;;;;;;;20.25;12.80;;;;;;;21.31;82.44;100915.00;5007962;28;20024;-79
2021/07/08 02:23:22;;;;;;;12.85;9.73;;;;;;;21.28;82.61;100915.94;5008069;28;20057;-79
2021/07/08 02:25:48;;;;;;;18.20;10.52;;;;;;;21.26;82.50;100912.50;5005776;28;20481;-81
2021/07/08 02:28:14;;;;;;;17.50;10.32;;;;;;;21.29;82.38;100918.56;5002809;28;20072;-79
2021/07/08 02:30:39;;;;;;;17.45;10.05;;;;;;;21.35;82.29;100925.47;5010029;28;20017;-79
2021/07/08 02:33:05;;;;;;;20.70;11.02;;;;;;;21.31;82.27;100921.19;4989065;28;20057;-80
2021/07/08 02:35:30;;;;;;;15.35;9.02;;;;;;;21.34;82.22;100917.53;5005166;28;20053;-79
2021/07/08 02:37:56;;;;;;;15.32;10.23;;;;;;;21.19;82.78;100921.63;5037011;28;20021;-79
2021/07/08 02:40:25;;;;;;;19.23;10.27;;;;;;;21.23;82.70;100916.09;5011839;28;20042;-80
2021/07/08 02:42:52;;;;;;;23.38;11.73;;;;;;;21.27;82.53;100931.09;5003524;28;20034;-79
2021/07/08 02:45:21;;;;;;;25.70;11.52;;;;;;;21.22;82.48;100926.88;5012121;28;20079;-80
2021/07/08 02:47:48;;;;;;;20.48;9.85;;;;;;;21.16;82.51;100929.75;5014661;28;20025;-80
2021/07/08 02:50:15;;;;;;;17.85;13.40;;;;;;;21.18;82.88;100935.91;5002062;28;20481;-80
2021/07/08 02:52:40;;;;;;;18.38;12.82;;;;;;;21.17;82.79;100935.03;5016184;28;20038;-79
2021/07/08 02:55:06;;;;;;;18.42;11.35;;;;;;;21.24;82.96;100935.69;5005596;28;20440;-80
2021/07/08 02:57:32;;;;;;;15.50;9.27;;;;;;;21.32;82.08;100946.09;5011342;28;20070;-80
2021/07/08 02:59:57;;;;;;;18.63;11.77;;;;;;;21.38;81.89;100940.53;5000284;28;20049;-80
2021/07/08 03:02:25;;;;;;;16.65;12.63;;;;;;;21.35;81.95;100945.97;4975806;28;20030;-81
2021/07/08 03:04:50;;;;;;;17.23;10.52;;;;;;;21.40;81.79;100941.34;5015696;28;20033;-79
2021/07/08 03:07:17;;;;;;;20.48;10.48;;;;;;;21.46;81.54;100947.34;5004785;28;20037;-79
2021/07/08 03:09:42;;;;;;;16.73;11.30;;;;;;;21.53;81.25;100955.16;4995263;28;20120;-78
2021/07/08 03:12:08;;;;;;;17.02;11.55;;;;;;;21.52;81.35;100956.94;5006998;28;20417;-81
2021/07/08 03:14:34;;;;;;;28.58;11.13;;;;;;;21.58;81.19;100955.84;4986405;28;20157;-80
2021/07/08 03:16:59;;;;;;;31.52;11.32;;;;;;;21.51;81.30;100957.84;5002665;28;20457;-81
2021/07/08 03:19:25;;;;;;;13.57;10.30;;;;;;;21.49;81.51;100960.59;5010561;28;20034;-81
2021/07/08 03:21:50;;;;;;;19.75;11.23;;;;;;;21.38;81.95;100957.41;5022574;28;20045;-82
2021/07/08 03:24:16;;;;;;;28.08;11.65;;;;;;;21.48;81.60;100952.66;5004468;28;20473;-80
2021/07/08 03:26:42;;;;;;;22.27;12.18;;;;;;;21.49;81.58;100959.72;5008720;28;20629;-80
2021/07/08 03:29:07;;;;;;;14.10;9.90;;;;;;;21.54;81.24;100960.44;5017210;28;20032;-81
2021/07/08 03:31:33;;;;;;;14.63;11.38;;;;;;;21.57;81.31;100964.78;4994952;28;20500;-81
2021/07/08 03:33:58;;;;;;;18.60;10.70;;;;;;;21.56;80.97;100955.88;5003726;28;20049;-81
2021/07/08 03:36:24;;;;;;;18.27;10.00;;;;;;;21.56;81.17;100958.56;5010136;28;20100;-80
2021/07/08 03:38:49;;;;;;;19.85;10.50;;;;;;;21.63;80.60;100960.09;4977034;28;20023;-80
2021/07/08 03:41:15;;;;;;;17.52;11.23;;;;;;;21.61;80.47;100961.06;4990889;28;20057;-81
2021/07/08 03:43:40;;;;;;;21.55;12.50;;;;;;;21.76;80.81;100955.16;5007928;28;20128;-81
2021/07/08 03:46:06;;;;;;;22.95;11.18;;;;;;;21.81;80.69;100965.66;4991926;28;20406;-80
2021/07/08 03:48:31;;;;;;;12.32;10.27;;;;;;;21.75;80.50;100965.88;5014465;28;20049;-81
2021/07/08 03:50:57;;;;;;;18.45;11.07;;;;;;;21.85;79.88;100969.97;5007843;28;20033;-80
2021/07/08 03:53:22;;;;;;;14.15;10.70;;;;;;;21.82;80.46;100973.63;5009702;28;20422;-81
2021/07/08 03:55:48;;;;;;;24.02;10.10;;;;;;;21.87;79.88;100976.13;5023418;28;20057;-80
2021/07/08 03:58:13;;;;;;;14.65;10.55;;;;;;;21.96;79.54;100973.13;5004953;28;20029;-79
2021/07/08 04:00:41;;;;;;;13.65;10.38;;;;;;;22.00;79.41;100976.53;5009094;28;20038;-91
2021/07/08 04:03:14;;;;;;;12.95;10.40;;;;;;;22.05;79.16;100969.19;5032616;28;20021;-89
2021/07/08 04:05:41;;;;;;;15.70;9.93;;;;;;;22.04;78.99;100976.34;5015603;28;20125;-89
2021/07/08 04:08:08;;;;;;;11.50;10.00;;;;;;;22.14;79.29;100977.72;5022149;28;21025;-87
2021/07/08 04:10:36;;;;;;;27.08;10.35;;;;;;;22.20;78.35;100971.28;4997781;28;20029;-88
2021/07/08 04:13:05;;;;;;;12.20;10.13;;;;;;;22.28;78.75;100976.34;5015538;28;20030;-88
2021/07/08 04:15:32;;;;;;;13.27;10.38;;;;;;;22.41;78.29;100988.31;5019001;28;20026;-88
2021/07/08 04:17:58;;;;;;;14.93;9.48;;;;;;;22.48;78.41;100986.25;5033310;28;20037;-80
2021/07/08 04:20:24;;;;;;;15.57;10.52;;;;;;;22.58;77.75;100989.44;5025917;28;20468;-80
2021/07/08 04:22:50;;;;;;;18.35;9.50;;;;;;;22.55;77.23;100990.44;5026419;28;20033;-80
2021/07/08 04:25:16;;;;;;;17.70;10.20;;;;;;;22.55;77.52;100998.47;5018683;28;20022;-80
2021/07/08 04:27:43;;;;;;;22.10;9.30;;;;;;;22.70;76.92;100992.47;4994533;28;20021;-80
2021/07/08 04:30:10;;;;;;;10.80;7.72;;;;;;;22.73;76.58;100989.69;5014321;28;20026;-81
2021/07/08 04:32:36;;;;;;;11.27;7.22;;;;;;;22.78;75.62;100992.16;5019311;28;20033;-80
2021/07/08 04:35:02;;;;;;;12.52;8.73;;;;;;;22.86;75.71;100999.88;5012295;28;20124;-86
2021/07/08 04:37:28;;;;;;;14.25;7.72;;;;;;;22.91;75.68;101005.88;5030568;28;20021;-87
2021/07/08 04:39:54;;;;;;;14.52;8.27;;;;;;;22.94;75.72;101003.06;5029974;28;20036;-86
2021/07/08 04:42:20;;;;;;;11.90;8.18;;;;;;;23.06;75.23;101001.72;4994201;28;20033;-77
2021/07/08 04:44:47;;;;;;;10.57;8.15;;;;;;;23.05;75.11;101008.88;5012453;28;20029;-87
2021/07/08 04:47:13;;;;;;;11.93;7.65;;;;;;;23.11;75.26;101005.97;4994574;28;20022;-88
2021/07/08 04:49:38;;;;;;;10.95;8.48;;;;;;;23.14;74.44;101015.66;5031307;28;20033;-86
2021/07/08 04:52:07;;;;;;;16.77;9.10;;;;;;;23.25;74.55;101009.84;5022479;28;20025;-89
2021/07/08 04:54:32;;;;;;;12.63;9.77;;;;;;;23.25;74.16;101012.50;5030519;28;20036;-88
2021/07/08 04:56:58;;;;;;;10.95;8.55;;;;;;;23.22;74.35;101009.97;4999185;28;20034;-88
2021/07/08 04:59:23;;;;;;;15.30;7.53;;;;;;;23.23;73.83;101014.41;4990579;28;20034;-89
2021/07/08 05:01:49;;;;;;;18.48;10.30;;;;;;;23.25;74.08;101009.84;4992613;28;20080;-87
2021/07/08 05:04:14;;;;;;;11.43;9.43;;;;;;;23.35;73.61;101019.22;5007192;28;20076;-86
2021/07/08 05:06:40;;;;;;;10.98;7.82;;;;;;;23.39;73.23;101020.84;4997274;28;20089;-88
2021/07/08 05:09:05;;;;;;;9.63;8.25;;;;;;;23.38;73.08;101029.81;5007861;28;20026;-86
2021/07/08 05:11:31;;;;;;;12.50;8.18;;;;;;;23.50;72.97;101028.38;5006964;28;20032;-85
2021/07/08 05:13:56;;;;;;;15.18;8.43;;;;;;;23.53;72.43;101023.78;5002026;28;20042;-85
2021/07/08 05:16:22;;;;;;;13.15;8.57;;;;;;;23.75;72.15;101028.22;4970802;28;20116;-88
2021/07/08 05:18:47;;;;;;;15.30;9.45;;;;;;;23.89;71.94;101033.81;4987764;28;20421;-85
2021/07/08 05:21:13;;;;;;;13.57;8.80;;;;;;;24.05;71.12;101028.63;4977016;28;20026;-86
2021/07/08 05:23:39;;;;;;;12.70;8.43;;;;;;;24.03;70.97;101035.88;4988663;28;20030;-84
2021/07/08 05:26:05;;;;;;;12.52;7.90;;;;;;;24.03;70.75;101035.88;4986521;28;20014;-86
2021/07/08 05:28:31;;;;;;;14.15;8.55;;;;;;;24.27;70.19;101039.19;4992606;28;20052;-86
2021/07/08 05:30:57;;;;;;;13.52;8.20;;;;;;;24.32;70.16;101042.53;4974526;28;20513;-86
2021/07/08 05:33:23;;;;;;;11.65;8.52;;;;;;;24.54;69.38;101054.97;4986928;28;20034;-90
2021/07/08 05:35:48;;;;;;;16.30;10.27;;;;;;;24.57;70.05;101053.00;4980666;28;20689;-88
2021/07/08 05:38:14;;;;;;;10.85;8.15;;;;;;;24.44;69.37;101063.44;4989220;28;20539;-87
2021/07/08 05:40:39;;;;;;;12.68;9.60;;;;;;;24.29;70.25;101064.16;4992558;28;20389;-87
2021/07/08 05:43:06;;;;;;;12.50;8.73;;;;;;;24.53;70.65;101072.00;4991928;28;20085;-87
2021/07/08 05:45:31;;;;;;;17.48;8.48;;;;;;;24.62;69.10;101075.13;4987666;28;20033;-86
2021/07/08 05:47:57;;;;;;;12.40;9.00;;;;;;;24.76;69.44;101078.97;4987036;28;20057;-87
2021/07/08 05:50:22;;;;;;;11.30;7.57;;;;;;;24.85;69.12;101084.75;4991846;28;20033;-86
2021/07/08 05:52:48;;;;;;;18.77;10.60;;;;;;;24.62;69.08;101082.31;4999354;28;20062;-86
2021/07/08 05:55:14;;;;;;;17.98;9.75;;;;;;;24.54;69.68;101081.81;4973123;28;20040;-87
2021/07/08 05:57:47;;;;;;;10.13;8.00;;;;;;;24.73;69.20;101079.97;5007343;28;20553;-73
2021/07/08 06:00:13;;;;;;;16.73;8.18;;;;;;;24.98;68.72;101089.50;4984941;28;20470;-73
2021/07/08 06:02:39;;;;;;;10.23;8.70;;;;;;;24.90;68.88;101081.84;4994540;28;20044;-73
2021/07/08 06:05:05;;;;;;;9.90;8.23;;;;;;;24.92;69.22;101079.09;5001338;28;20034;-73
2021/07/08 06:07:30;;;;;;;15.00;8.35;;;;;;;24.79;68.90;101079.66;4999908;28;20038;-76
2021/07/08 06:09:56;;;;;;;10.00;9.00;;;;;;;25.16;68.80;101080.53;4975780;28;20165;-76
2021/07/08 06:12:22;;;;;;;16.20;8.48;;;;;;;25.20;67.62;101079.47;4976705;28;20716;-78
2021/07/08 06:14:48;;;;;;;11.13;9.35;;;;;;;25.18;66.69;101085.88;4991012;28;20026;-78
2021/07/08 06:17:14;;;;;;;13.43;7.72;;;;;;;25.17;67.23;101093.03;4981352;28;20142;-79
2021/07/08 06:19:39;;;;;;;10.73;7.57;;;;;;;25.31;66.25;101078.94;4998464;28;20481;-79
2021/07/08 06:22:05;;;;;;;9.07;6.75;;;;;;;24.77;66.81;101081.56;4975818;28;20112;-79
2021/07/08 06:24:30;;;;;;;9.40;8.02;;;;;;;24.75;67.77;101079.91;4992952;28;20172;-80
2021/07/08 06:26:56;;;;;;;21.25;8.10;;;;;;;24.87;67.17;101075.75;5013312;28;20005;-79
2021/07/08 06:29:24;;;;;;;9.70;7.60;;;;;;;24.86;66.67;101088.28;4988998;28;20500;-79
2021/07/08 06:31:49;;;;;;;14.73;8.00;;;;;;;24.69;67.71;101077.53;4985878;28;20049;-81
2021/07/08 06:34:15;;;;;;;11.07;7.05;;;;;;;24.72;67.27;101088.97;4971175;28;20121;-81
2021/07/08 06:36:40;;;;;;;12.75;7.60;;;;;;;24.66;67.20;101091.09;4959891;28;20018;-79
2021/07/08 06:39:06;;;;;;;9.05;7.70;;;;;;;24.75;67.47;101093.34;4975998;28;20038;-78
2021/07/08 06:41:32;;;;;;;11.07;8.48;;;;;;;24.83;67.26;101080.41;4977327;28;20057;-79
2021/07/08 06:43:57;;;;;;;12.43;7.30;;;;;;;24.80;66.67;101088.59;4981960;28;20092;-79
2021/07/08 06:46:30;;;;;;;15.82;7.45;;;;;;;25.06;66.64;101084.63;4964682;28;20491;-78
2021/07/08 06:48:57;;;;;;;9.88;7.32;;;;;;;25.09;65.36;101084.47;5001619;28;20025;-78
2021/07/08 06:51:29;;;;;;;6.75;5.78;;;;;;;25.06;65.10;101090.88;4978016;28;20121;-78
2021/07/08 06:53:55;;;;;;;11.75;7.15;;;;;;;25.05;65.67;101097.22;5007267;28;20105;-80
2021/07/08 06:56:22;;;;;;;6.63;5.40;;;;;;;25.20;65.37;101095.59;4991891;28;20080;-81
2021/07/08 06:58:48;;;;;;;7.03;5.93;;;;;;;25.20;65.55;101095.59;5023293;28;20045;-82
2021/07/08 07:01:14;;;;;;;8.10;5.57;;;;;;;25.40;65.48;101091.00;5006042;28;20157;-82
2021/07/08 07:03:39;;;;;;;7.45;5.30;;;;;;;25.48;65.01;101095.06;5026310;28;20101;-80
2021/07/08 07:06:05;;;;;;;7.88;5.85;;;;;;;25.39;64.95;101100.91;5021161;28;20034;-78
2021/07/08 07:08:30;;;;;;;8.45;6.10;;;;;;;25.33;64.73;101097.66;5001105;28;20136;-79
2021/07/08 07:10:56;;;;;;;7.95;5.80;;;;;;;25.48;64.18;101100.44;4989537;28;20025;-79
2021/07/08 07:13:22;;;;;;;8.77;5.50;;;;;;;25.48;64.44;101099.56;5017329;28;20500;-81
2021/07/08 07:15:48;;;;;;;14.80;6.25;;;;;;;25.56;64.17;101109.91;5001505;28;20026;-80
2021/07/08 07:18:13;;;;;;;10.73;5.95;;;;;;;25.54;64.94;101101.91;5017491;28;20033;-79
2021/07/08 07:20:39;;;;;;;8.90;6.07;;;;;;;25.54;64.26;101107.28;5017271;28;20053;-78
2021/07/08 07:23:04;;;;;;;7.78;5.55;;;;;;;25.79;65.22;101098.84;4992356;28;20384;-78
2021/07/08 07:25:31;;;;;;;9.88;5.78;;;;;;;25.87;63.49;101104.72;5001412;28;20504;-79
2021/07/08 07:27:57;;;;;;;13.38;6.15;;;;;;;25.94;63.25;101105.25;5001550;28;20560;-77
2021/07/08 07:30:25;;;;;;;13.00;6.00;;;;;;;25.90;63.89;101103.69;5006844;28;20116;-78
2021/07/08 07:32:52;;;;;;;7.75;5.97;;;;;;;26.00;63.68;101104.94;4981533;28;20021;-79
2021/07/08 07:35:18;;;;;;;7.78;4.53;;;;;;;25.88;62.38;101100.22;5015528;28;20113;-80
2021/07/08 07:37:44;;;;;;;16.55;5.50;;;;;;;25.83;62.95;101095.03;5007415;28;20030;-77
2021/07/08 07:40:11;;;;;;;5.15;4.20;;;;;;;25.84;62.79;101106.66;5000334;28;20129;-80
2021/07/08 07:42:37;;;;;;;7.82;4.82;;;;;;;26.13;63.50;101104.25;4993484;28;20057;-80
2021/07/08 07:45:06;;;;;;;7.60;4.75;;;;;;;26.18;61.86;101097.69;4993295;28;20056;-81
2021/07/08 07:47:31;;;;;;;5.93;4.43;;;;;;;26.49;62.44;101102.25;5023261;28;20022;-80
2021/07/08 07:50:00;;;;;;;7.38;6.15;;;;;;;26.76;61.96;101101.66;5018408;28;20040;-80
2021/07/08 07:52:26;;;;;;;8.75;5.25;;;;;;;26.74;60.84;101111.69;5019186;28;20034;-78
2021/07/08 07:54:52;;;;;;;6.68;4.32;;;;;;;26.43;61.23;101112.47;4989853;28;20095;-79
2021/07/08 07:57:17;;;;;;;7.05;4.43;;;;;;;26.69;61.41;101109.25;5003227;28;20045;-78
2021/07/08 07:59:43;;;;;;;7.53;4.32;;;;;;;27.06;60.38;101111.66;4991890;28;20033;-77
2021/07/08 08:02:11;;;;;;;5.80;4.55;;;;;;;27.20;59.86;101116.28;5002004;28;20507;-76
2021/07/08 08:04:42;;;;;;;6.70;4.10;;;;;;;27.41;60.57;101116.84;5001100;28;20022;-77
2021/07/08 08:09:55;;;;;;;10.32;4.25;;;;;;;27.33;59.65;101112.78;4985699;28;20049;-77
2021/07/08 08:12:21;;;;;;;8.90;4.88;;;;;;;27.11;59.10;101110.44;5016114;28;20414;-78
2021/07/08 08:14:47;;;;;;;6.15;4.50;;;;;;;26.97;59.18;101118.44;5002954;28;20030;-79
2021/07/08 08:17:13;;;;;;;9.98;4.57;;;;;;;26.66;59.32;101116.63;4973880;28;20113;-77
2021/07/08 08:19:38;;;;;;;8.80;5.28;;;;;;;26.78;59.67;101113.22;5019228;28;20141;-77
2021/07/08 08:22:06;;;;;;;7.47;5.40;;;;;;;27.01;59.33;101117.31;4983102;28;20045;-77
2021/07/08 08:24:31;;;;;;;7.57;4.22;;;;;;;27.03;60.42;101109.16;5016037;28;20873;-80
2021/07/08 08:26:57;;;;;;;9.73;4.60;;;;;;;27.05;59.52;101112.63;4984454;28;20050;-78
2021/07/08 08:29:25;;;;;;;5.35;4.50;;;;;;;26.53;60.42;101111.91;5002361;28;20041;-78
2021/07/08 08:31:50;;;;;;;6.90;3.42;;;;;;;27.15;59.68;101109.28;5005732;28;20117;-78
2021/07/08 08:34:21;;;;;;;6.65;4.70;;;;;;;27.17;58.61;101107.38;4999336;28;20127;-78
2021/07/08 08:36:46;;;;;;;6.97;3.97;;;;;;;27.53;58.50;101117.00;4997813;28;20113;-78
2021/07/08 08:39:12;;;;;;;7.95;4.80;;;;;;;27.08;58.92;101121.38;4989847;28;20461;-78
2021/07/08 08:41:38;;;;;;;9.93;4.38;;;;;;;26.76;59.61;101116.97;4973490;28;20129;-77
2021/07/08 08:44:04;;;;;;;5.65;4.75;;;;;;;26.43;60.69;101131.31;4991089;28;20025;-79
2021/07/08 08:46:33;;;;;;;6.78;4.45;;;;;;;26.63;60.63;101132.97;5009727;28;20026;-79
2021/07/08 08:48:59;;;;;;;6.38;4.70;;;;;;;26.36;60.88;101129.91;4998646;28;20022;-79
2021/07/08 08:51:25;;;;;;;6.55;4.72;;;;;;;26.78;60.93;101128.53;5017781;28;20121;-78
2021/07/08 08:53:51;;;;;;;6.93;4.53;;;;;;;26.53;60.44;101127.19;4994245;28;20032;-78
2021/07/08 08:56:17;;;;;;;16.58;4.53;;;;;;;27.20;58.71;101141.38;4996364;28;20104;-77
2021/07/08 08:58:42;;;;;;;9.43;4.60;;;;;;;26.59;59.16;101142.16;4980820;28;20100;-79
2021/07/08 09:01:14;;;;;;;5.68;4.05;;;;;;;27.02;58.38;101131.63;5006945;28;20370;-78
2021/07/08 09:03:40;;;;;;;12.68;5.05;;;;;;;27.30;58.38;101126.44;5000338;28;20090;-79
2021/07/08 09:06:10;;;;;;;6.78;4.47;;;;;;;27.46;58.89;101130.91;4968020;28;20386;-78
2021/07/08 09:08:47;;;;;;;5.68;4.45;;;;;;;26.91;59.42;101132.28;5017731;28;20018;-79
2021/07/08 09:11:19;;;;;;;21.63;4.88;;;;;;;26.74;58.64;101134.09;5017046;28;20030;-78
2021/07/08 09:13:53;;;;;;;4.68;4.07;;;;;;;26.43;60.67;101147.47;4991487;28;20037;-79
2021/07/08 09:16:26;;;;;;;6.30;4.32;;;;;;;26.68;60.94;101134.44;4982042;28;20034;-79
2021/07/08 09:18:55;;;;;;;;;;;;;;;26.73;61.83;101129.66;4978776;28;20030;-79
2021/07/08 09:21:22;;;;;;;8.80;4.85;;;;;;;27.42;60.51;101132.94;4992712;28;19913;-79
2021/07/08 09:24:15;;;;;;;6.05;5.18;;;;;;;28.32;55.27;101125.69;4986985;28;20036;-78
2021/07/08 09:27:03;;;;;;;6.13;4.25;;;;;;;28.25;54.57;101138.69;4995334;28;20037;-78
2021/07/08 09:29:36;;;;;;;13.40;5.13;;;;;;;28.21;54.83;101139.84;5006532;28;20031;-76
2021/07/08 09:32:10;;;;;;;16.20;4.43;;;;;;;28.56;54.07;101126.84;5003859;28;20109;-77
2021/07/08 09:34:38;;;;;;;8.32;4.50;;;;;;;28.31;53.90;101126.66;5016365;28;20113;-78
2021/07/08 09:37:10;;;;;;;8.75;4.50;;;;;;;28.05;53.96;101122.88;5007576;28;20033;-82
2021/07/08 09:39:49;;;;;;;5.35;3.83;;;;;;;28.56;52.76;101131.38;5005389;28;20026;-79
2021/07/08 09:42:36;;;;;;;7.07;3.17;;;;;;;28.41;50.74;101133.22;5000036;28;20034;-77
2021/07/08 09:45:09;;;;;;;7.32;3.38;;;;;;;28.68;51.55;101140.53;4985970;28;20088;-80
2021/07/08 09:47:37;;;;;;;7.55;3.85;;;;;;;28.33;53.00;101131.00;4990668;28;20029;-81
2021/07/08 09:50:06;;;;;;;5.30;3.60;;;;;;;28.38;52.65;101136.97;5015152;28;20037;-82
2021/07/08 09:52:33;;;;;;;5.63;4.13;;;;;;;28.37;52.34;101128.97;4990367;28;20042;-79
2021/07/08 09:57:47;;;;;;;6.05;3.58;;;;;;;29.03;51.29;101125.63;5022680;28;20397;-81
2021/07/08 10:00:19;;;;;;;13.25;3.67;;;;;;;29.39;49.87;101116.03;5022001;28;20026;-80
2021/07/08 10:02:46;;;;;;;6.82;3.35;;;;;;;29.20;49.58;101111.00;5027020;28;20033;-79
2021/07/08 10:05:11;;;;;;;5.18;2.65;;;;;;;28.83;49.40;101116.09;5005667;28;20033;-78
2021/07/08 10:07:37;;;;;;;6.53;3.50;;;;;;;28.27;51.41;101117.03;5020587;28;20343;-78
2021/07/08 10:10:07;;;;;;;21.40;4.60;;;;;;;28.47;52.10;101118.47;5010299;28;20516;-79
2021/07/08 10:12:33;;;;;;;6.03;3.63;;;;;;;28.74;52.42;101118.53;5022971;28;20408;-81
2021/07/08 10:15:00;;;;;;;4.85;3.55;;;;;;;28.60;51.55;101101.38;5008477;28;20079;-80
2021/07/08 10:17:30;;;;;;;4.93;3.33;;;;;;;28.35;51.42;101106.59;5001708;28;20030;-77
2021/07/08 10:19:55;;;;;;;11.25;3.17;;;;;;;28.22;50.22;101098.41;4999327;28;20036;-78
2021/07/08 10:22:21;;;;;;;15.43;3.88;;;;;;;28.52;49.97;101103.72;4999883;28;20025;-79
2021/07/08 10:24:47;;;;;;;4.13;3.08;;;;;;;28.60;49.72;101100.53;4998545;28;20388;-82
2021/07/08 10:27:13;;;;;;;5.20;4.00;;;;;;;28.48;50.11;101090.53;5016141;28;20021;-80
2021/07/08 10:29:41;;;;;;;5.40;4.38;;;;;;;28.96;49.79;101094.56;5001442;28;20037;-80
2021/07/08 10:32:07;;;;;;;8.00;3.67;;;;;;;28.59;50.62;101096.97;5002557;28;20022;-81
2021/07/08 10:34:49;;;;;;;8.90;3.70;;;;;;;28.84;49.97;101092.66;5022535;28;20057;-81
2021/07/08 10:37:37;;;;;;;8.63;4.00;;;;;;;28.40;48.54;101094.56;5004941;28;20038;-78
2021/07/08 10:40:04;;;;;;;6.35;3.05;;;;;;;29.02;48.09;101083.31;5011722;28;20025;-77
2021/07/08 10:42:44;;;;;;;6.90;3.38;;;;;;;29.47;49.99;101083.03;4995299;28;20047;-79
2021/07/08 10:45:35;;;;;;;8.20;3.53;;;;;;;29.74;48.90;101087.56;5007238;28;20060;-78
2021/07/08 10:48:24;;;;;;;9.27;4.43;;;;;;;29.71;47.64;101082.34;4976839;28;20037;-77
2021/07/08 10:50:50;;;;;;;11.50;3.90;;;;;;;29.79;48.08;101088.09;5001792;28;20064;-78
2021/07/08 10:53:17;;;;;;;10.02;4.22;;;;;;;29.43;48.13;101086.91;5004943;28;20037;-77
2021/07/08 10:55:45;;;;;;;6.95;4.32;;;;;;;29.09;50.40;101089.22;5035279;28;20049;-80
2021/07/08 10:58:36;;;;;;;5.07;4.50;;;;;;;29.10;51.02;101072.03;5017640;28;20158;-79
2021/07/08 11:01:01;;;;;;;12.07;3.53;;;;;;;29.80;49.80;101079.84;5002713;28;20651;-78
2021/07/08 11:03:46;;;;;;;6.93;4.63;;;;;;;29.14;49.39;101083.50;5009400;28;20033;-79
2021/07/08 11:06:12;;;;;;;6.25;3.75;;;;;;;29.00;49.74;101071.75;5007814;28;20032;-78
2021/07/08 11:08:47;;;;;;;5.05;4.03;;;;;;;29.28;48.98;101072.63;5023166;28;20025;-79
2021/07/08 11:11:18;;;;;;;17.67;4.07;;;;;;;29.96;48.42;101082.34;5019207;28;20048;-79
2021/07/08 11:13:44;;;;;;;11.95;5.88;;;;;;;29.67;49.51;101071.75;5025522;28;20026;-80
2021/07/08 11:16:12;;;;;;;7.05;4.60;;;;;;;29.81;49.21;101078.03;5002007;28;20535;-79
2021/07/08 11:18:37;;;;;;;5.95;3.72;;;;;;;29.28;49.60;101077.16;5031154;28;20034;-81
2021/07/08 11:21:02;;;;;;;4.97;3.97;;;;;;;29.31;49.81;101071.53;5002316;28;20165;-81
2021/07/08 11:23:39;;;;;;;5.72;3.88;;;;;;;28.40;51.29;101058.56;5006818;28;20028;-82